KRIV/RIV METAR and TAF weather

Enter ICAO airport designator
Station Type Date Time Source
KRIV METAR 2019/09/21 20:58 UTC NOAA

KRIV 212058Z AUTO 35003KT 10SM CLR 32/01 A2985 RMK AO2 SLP096 T03230014 57022


Station Type Date Time Source
KRIV Decoded METAR 2019/09/21 20:58 UTC NOAA

Riverside / March Air Force Base, CA, United States (KRIV) 33-54N 117-15W 468M
Sep 21, 2019 - 04:58 PM EDT / 2019.09.21 2058 UTC
Wind: from the N (350 degrees) at 3 MPH (3 KT):0
Visibility: 10 mile(s):0
Sky conditions: clear
Temperature: 90.1 F (32.3 C)
Dew Point: 34.5 F (1.4 C)
Relative Humidity: 13%
Pressure (altimeter): 29.85 in. Hg (1010 hPa)
Pressure tendency: 0.06 inches (2.2 hPa) lower than three hours ago
ob: KRIV 212058Z AUTO 35003KT 10SM CLR 32/01 A2985 RMK AO2 SLP096 T03230014 57022
cycle: 21

Station Type Date Time Source
KRIV TAF 2019/09/21 20:17 UTC NOAA

TAF KRIV 212001Z 2120/2302 31009KT 9999 SKC QNH2982INS
TEMPO 2121/2201 31012G18KT
BECMG 2204/2205 VRB03KT 9999 SCT300 QNH2986INS
BECMG 2215/2216 14006KT 9999 BKN250 QNH2994INS
BECMG 2219/2220 31009KT 9999 BKN250 QNH2986INS
TEMPO 2221/2301 31012G20KT TX34/2122Z TN10/2212Z

Example: see airport list